CheckWX is a tool to help pilots better visualize weather data.  It is not intended as a substitute for an official pre-flight weather briefing.

07:16:16 UTC

KMKL METAR
Mc Kellar-Sipes Regional Airport
Jackson, Tennessee, USA
Current

23 mins ago

KMKL 180653Z AUTO 00000KT 6SM BR CLR 22/21 A3001 RMK AO2 SLP156 T02170206
Observed
Sep-18 @ 06:53 UTC
Visibility
6 SM
Flight Rules
VFR
Conditions
Mist
Cloud Levels
  • Clear skies
Temperature
22°C / 72°F
Dewpoint
21°C / 70°F
Humidity
94%
Altimeter
30.01" Hg
Pressure
1016.22 hPa
Previous

1 hour ago

KMKL 180553Z AUTO 00000KT 6SM BR CLR 21/21 A3001 RMK AO2 SLP155 T02110206 10289 20211 403720178 52000
Observed
Sep-18 @ 05:53 UTC
Visibility
6 SM
Flight Rules
VFR
Conditions
Mist
Cloud Levels
  • Clear skies
Temperature
21°C / 70°F
Dewpoint
21°C / 70°F
Humidity
100%
Altimeter
30.01" Hg
Pressure
1016.22 hPa
Previous

2 hours ago

KMKL 180453Z AUTO 21003KT 7SM CLR 22/21 A3000 RMK AO2 SLP154 T02220211
Observed
Sep-18 @ 04:53 UTC
Wind
  • 210° at 3 KTS
Visibility
7 SM
Flight Rules
VFR
Cloud Levels
  • Clear skies
Temperature
22°C / 72°F
Dewpoint
21°C / 70°F
Humidity
94%
Altimeter
30" Hg
Pressure
1015.92 hPa